createdAt,value
2022-12-18T00:00:29.759Z,10.66
2022-12-18T00:01:36.121Z,10.68
2022-12-18T00:02:39.446Z,10.67
2022-12-18T00:03:44.155Z,10.68
2022-12-18T00:04:48.042Z,10.68
2022-12-18T00:05:51.943Z,10.68
2022-12-18T00:06:55.918Z,10.68
2022-12-18T00:07:58.991Z,10.68
2022-12-18T00:09:03.666Z,10.69
2022-12-18T00:10:07.926Z,10.69
2022-12-18T00:11:17.320Z,10.70
2022-12-18T00:12:20.435Z,10.71
2022-12-18T00:13:23.517Z,10.73
2022-12-18T00:14:26.712Z,10.73
2022-12-18T00:15:29.862Z,10.74
2022-12-18T00:16:34.856Z,10.74
2022-12-18T00:17:38.014Z,10.75
2022-12-18T00:18:41.829Z,10.75
2022-12-18T00:19:45.058Z,10.76
2022-12-18T00:20:48.296Z,10.77
2022-12-18T00:21:51.508Z,10.79
2022-12-18T00:22:54.589Z,10.80
2022-12-18T00:23:58.345Z,10.82
2022-12-18T00:25:01.434Z,10.82
2022-12-18T00:26:07.632Z,10.82
2022-12-18T00:27:10.810Z,10.82
2022-12-18T00:28:13.978Z,10.81
2022-12-18T00:29:17.349Z,10.82
2022-12-18T00:30:20.508Z,10.83
2022-12-18T00:31:25.147Z,10.82
2022-12-18T00:32:28.906Z,10.83
2022-12-18T00:33:32.107Z,10.83
2022-12-18T00:34:35.221Z,10.82
2022-12-18T00:35:38.394Z,10.83
2022-12-18T00:36:42.068Z,10.82
2022-12-18T00:37:45.227Z,10.83
2022-12-18T00:38:48.609Z,10.82
2022-12-18T00:39:53.429Z,10.82
2022-12-18T00:40:56.757Z,10.82
2022-12-18T00:42:18.061Z,10.82
2022-12-18T00:43:21.253Z,10.83
2022-12-18T00:44:24.470Z,10.83
2022-12-18T00:45:30.792Z,10.82
2022-12-18T00:46:34.141Z,10.81
2022-12-18T00:47:37.327Z,10.81
2022-12-18T00:48:40.540Z,10.81
2022-12-18T00:49:43.662Z,10.82
2022-12-18T00:50:48.595Z,10.81
2022-12-18T00:51:52.064Z,10.80
2022-12-18T00:52:55.178Z,10.81
2022-12-18T00:53:59.056Z,10.81
2022-12-18T00:55:06.278Z,10.82
2022-12-18T00:56:07.784Z,10.82
2022-12-18T00:57:10.886Z,10.81
2022-12-18T00:58:16.122Z,10.82
2022-12-18T00:59:19.515Z,10.83
2022-12-18T01:00:23.041Z,10.82
2022-12-18T01:01:26.375Z,10.82
2022-12-18T01:02:29.629Z,10.83
2022-12-18T01:03:32.956Z,10.83
2022-12-18T01:04:36.173Z,10.83
2022-12-18T01:05:43.016Z,10.83
2022-12-18T01:06:46.292Z,10.84
2022-12-18T01:07:49.342Z,10.84
2022-12-18T01:08:52.511Z,10.84
2022-12-18T01:09:55.635Z,10.83
2022-12-18T01:10:58.698Z,10.83
2022-12-18T01:12:01.858Z,10.83
2022-12-18T01:13:04.940Z,10.84
2022-12-18T01:14:08.144Z,10.83
2022-12-18T01:15:14.030Z,10.84
2022-12-18T01:16:18.266Z,10.83
2022-12-18T01:17:21.743Z,10.83
2022-12-18T01:18:24.888Z,10.83
2022-12-18T01:19:27.975Z,10.83
2022-12-18T01:20:31.340Z,10.84
2022-12-18T01:21:34.291Z,10.83
2022-12-18T01:22:39.491Z,10.84
2022-12-18T01:23:43.937Z,10.83
2022-12-18T01:24:46.949Z,10.83
2022-12-18T01:25:49.994Z,10.83
2022-12-18T01:26:53.030Z,10.84
2022-12-18T01:27:56.068Z,10.84
2022-12-18T01:28:59.364Z,10.83
2022-12-18T01:30:02.759Z,10.84
2022-12-18T01:31:20.761Z,10.82
2022-12-18T01:32:24.004Z,10.83
2022-12-18T01:33:27.037Z,10.83
2022-12-18T01:34:30.075Z,10.83
2022-12-18T01:35:33.099Z,10.82
2022-12-18T01:36:39.436Z,10.82
2022-12-18T01:37:42.733Z,10.81
2022-12-18T01:38:46.537Z,10.81
2022-12-18T01:39:50.433Z,10.80
2022-12-18T01:40:58.675Z,10.78
2022-12-18T01:42:03.862Z,10.77
2022-12-18T01:43:09.759Z,10.78
2022-12-18T01:44:49.501Z,10.78
2022-12-18T01:45:52.772Z,10.77
2022-12-18T01:46:56.065Z,10.76
2022-12-18T01:48:05.389Z,10.76
2022-12-18T01:49:08.631Z,10.76
2022-12-18T01:50:19.148Z,10.74
2022-12-18T01:51:22.967Z,10.74
2022-12-18T01:52:29.625Z,10.73
2022-12-18T01:53:32.752Z,10.74
2022-12-18T01:54:36.104Z,10.74
2022-12-18T01:55:43.021Z,10.73
2022-12-18T01:56:47.887Z,10.74
2022-12-18T01:57:54.579Z,10.73
2022-12-18T01:59:04.346Z,10.73
2022-12-18T02:00:11.729Z,10.72
2022-12-18T02:01:18.158Z,10.72
2022-12-18T02:02:22.195Z,10.71
2022-12-18T02:03:25.508Z,10.71
2022-12-18T02:04:28.970Z,10.71
2022-12-18T02:05:56.675Z,10.72
2022-12-18T02:07:03.313Z,10.71
2022-12-18T02:08:13.408Z,10.70
2022-12-18T02:11:07.359Z,10.78
2022-12-18T02:12:23.048Z,10.67
2022-12-18T02:13:49.247Z,10.66
2022-12-18T02:15:17.050Z,10.64
2022-12-18T02:16:26.071Z,10.63
2022-12-18T02:17:35.451Z,10.63
2022-12-18T02:18:42.212Z,10.62
2022-12-18T02:19:52.072Z,10.62
2022-12-18T02:21:07.708Z,10.61
2022-12-18T02:22:32.636Z,10.61
2022-12-18T02:23:42.611Z,10.62
2022-12-18T02:25:07.555Z,10.62
2022-12-18T02:26:29.436Z,10.63
2022-12-18T02:27:34.407Z,10.62
2022-12-18T02:28:43.952Z,10.62
2022-12-18T02:31:06.808Z,10.72
2022-12-18T02:32:17.104Z,10.62
2022-12-18T02:33:22.753Z,10.62
2022-12-18T02:34:29.407Z,10.61
2022-12-18T02:35:34.622Z,10.61
2022-12-18T02:36:41.254Z,10.62
2022-12-18T02:37:47.468Z,10.62
2022-12-18T02:38:52.952Z,10.64
2022-12-18T02:39:58.932Z,10.64
2022-12-18T02:41:03.910Z,10.64
2022-12-18T02:42:09.833Z,10.65
2022-12-18T02:43:15.699Z,10.65
2022-12-18T02:44:19.031Z,10.67
2022-12-18T02:45:22.321Z,10.67
2022-12-18T02:46:29.093Z,10.68
2022-12-18T02:47:35.844Z,10.68
2022-12-18T02:48:39.425Z,10.70
2022-12-18T02:50:04.547Z,10.70
2022-12-18T02:53:00.593Z,10.82
2022-12-18T02:54:15.994Z,10.72
2022-12-18T02:55:37.726Z,10.71
2022-12-18T02:56:46.257Z,10.72
2022-12-18T02:58:17.383Z,10.72
2022-12-18T02:59:24.443Z,10.72
2022-12-18T03:00:42.271Z,10.72
2022-12-18T03:01:54.959Z,10.72
2022-12-18T03:03:02.187Z,10.73
2022-12-18T03:04:14.959Z,10.73
2022-12-18T03:05:27.993Z,10.74
2022-12-18T03:06:34.810Z,10.74
2022-12-18T03:07:59.652Z,10.74
2022-12-18T03:09:13.900Z,10.75
2022-12-18T03:10:20.941Z,10.76
2022-12-18T03:11:27.597Z,10.75
2022-12-18T03:12:35.103Z,10.76
2022-12-18T03:13:48.078Z,10.77
2022-12-18T03:15:14.528Z,10.77
2022-12-18T03:16:21.576Z,10.78
2022-12-18T03:17:28.498Z,10.78
2022-12-18T03:18:35.122Z,10.79
2022-12-18T03:19:39.716Z,10.79
2022-12-18T03:20:46.506Z,10.81
2022-12-18T03:21:54.328Z,10.80
2022-12-18T03:23:00.976Z,10.81
2022-12-18T03:24:07.763Z,10.82
2022-12-18T03:25:14.729Z,10.83
2022-12-18T03:26:24.108Z,10.84
2022-12-18T03:27:31.860Z,10.84
2022-12-18T03:28:39.364Z,10.84
2022-12-18T03:29:50.746Z,10.85
2022-12-18T03:30:59.415Z,10.85
2022-12-18T03:32:09.025Z,10.86
2022-12-18T03:33:20.051Z,10.86
2022-12-18T03:34:27.059Z,10.87
2022-12-18T03:35:33.785Z,10.88
2022-12-18T03:36:37.097Z,10.86
2022-12-18T03:37:40.703Z,10.85
2022-12-18T03:38:44.381Z,10.86
2022-12-18T03:39:47.659Z,10.86
2022-12-18T03:40:57.255Z,10.86
2022-12-18T03:42:04.025Z,10.86
2022-12-18T03:43:31.398Z,10.85
2022-12-18T03:44:47.570Z,10.86
2022-12-18T03:45:57.270Z,10.85
2022-12-18T03:47:07.665Z,10.86
2022-12-18T03:48:17.349Z,10.84
2022-12-18T03:50:53.291Z,10.95
2022-12-18T03:52:20.961Z,10.82
2022-12-18T03:53:27.597Z,10.81
2022-12-18T03:54:32.617Z,10.77
2022-12-18T03:55:39.077Z,10.75
2022-12-18T03:56:45.637Z,10.74
2022-12-18T03:57:49.521Z,10.73
2022-12-18T03:58:55.763Z,10.71
2022-12-18T04:01:18.686Z,10.77
2022-12-18T04:02:24.357Z,10.63
2022-12-18T04:03:30.598Z,10.58
2022-12-18T04:04:36.275Z,10.52
2022-12-18T04:05:41.789Z,10.49
2022-12-18T04:06:47.616Z,10.43
2022-12-18T04:07:54.398Z,10.37
2022-12-18T04:08:59.477Z,10.28
2022-12-18T04:10:04.980Z,10.18
2022-12-18T04:11:08.450Z,10.10
2022-12-18T04:12:11.544Z,10.01
2022-12-18T04:13:27.081Z,9.92
2022-12-18T04:14:30.119Z,9.82
2022-12-18T04:15:37.073Z,9.71
2022-12-18T04:16:40.887Z,9.62
2022-12-18T04:17:49.089Z,9.53
2022-12-18T04:18:54.371Z,9.46
2022-12-18T04:19:58.074Z,9.40
2022-12-18T04:21:01.656Z,9.32
2022-12-18T04:22:04.753Z,9.26
2022-12-18T04:23:10.195Z,9.20
2022-12-18T04:24:13.551Z,9.14
2022-12-18T04:25:18.815Z,9.08
2022-12-18T04:26:32.872Z,9.00
2022-12-18T04:27:43.357Z,8.89
2022-12-18T04:28:46.595Z,8.81
2022-12-18T04:29:49.574Z,8.73
2022-12-18T04:30:54.719Z,8.67
2022-12-18T04:31:58.335Z,8.63
2022-12-18T04:33:02.570Z,8.57
2022-12-18T04:34:07.009Z,8.53
2022-12-18T04:35:12.363Z,8.48
2022-12-18T04:37:05.702Z,8.51
2022-12-18T04:38:10.274Z,8.37
2022-12-18T04:39:13.600Z,8.34
2022-12-18T04:40:18.006Z,8.30
2022-12-18T04:41:22.694Z,8.28
2022-12-18T04:42:26.011Z,8.24
2022-12-18T04:43:29.225Z,8.21
2022-12-18T04:44:32.433Z,8.17
2022-12-18T04:45:36.314Z,8.16
2022-12-18T04:46:39.478Z,8.13
2022-12-18T04:47:42.758Z,8.10
2022-12-18T04:48:47.348Z,8.08
2022-12-18T04:49:50.324Z,8.05
2022-12-18T04:50:53.707Z,8.00
2022-12-18T04:51:56.738Z,7.94
2022-12-18T04:52:59.771Z,7.89
2022-12-18T04:54:02.915Z,7.83
2022-12-18T04:55:06.557Z,7.67
2022-12-18T04:56:15.397Z,7.67
2022-12-18T04:57:21.150Z,7.60
2022-12-18T04:58:24.219Z,7.50
2022-12-18T04:59:27.309Z,7.43
2022-12-18T05:00:30.678Z,7.36
2022-12-18T05:01:35.393Z,7.29
2022-12-18T05:02:39.815Z,7.22
2022-12-18T05:03:44.151Z,7.16
2022-12-18T05:04:47.458Z,7.10
2022-12-18T05:05:51.637Z,7.07
2022-12-18T05:06:54.836Z,7.04
2022-12-18T05:07:57.975Z,7.02
2022-12-18T05:09:01.036Z,6.99
2022-12-18T05:10:04.951Z,6.98
2022-12-18T05:11:11.252Z,6.97
2022-12-18T05:12:14.334Z,6.97
2022-12-18T05:13:17.511Z,6.97
2022-12-18T05:14:21.101Z,6.93
2022-12-18T05:15:24.910Z,6.90
2022-12-18T05:16:28.053Z,6.87
2022-12-18T05:17:31.128Z,6.84
2022-12-18T05:18:34.424Z,6.82
2022-12-18T05:19:38.993Z,6.80
2022-12-18T05:20:42.595Z,6.80
2022-12-18T05:21:45.632Z,6.78
2022-12-18T05:22:49.071Z,6.77
2022-12-18T05:23:52.277Z,6.76
2022-12-18T05:24:55.463Z,6.72
2022-12-18T05:26:00.702Z,6.69
2022-12-18T05:27:03.991Z,6.63
2022-12-18T05:28:07.112Z,6.59
2022-12-18T05:29:12.045Z,6.55
2022-12-18T05:30:16.117Z,6.51
2022-12-18T05:31:19.420Z,6.49
2022-12-18T05:32:22.540Z,6.48
2022-12-18T05:33:27.719Z,6.46
2022-12-18T05:34:30.911Z,6.44
2022-12-18T05:35:34.089Z,6.42
2022-12-18T05:36:37.432Z,6.39
2022-12-18T05:37:43.200Z,6.37
2022-12-18T05:38:45.632Z,6.34
2022-12-18T05:39:48.956Z,6.33
2022-12-18T05:40:53.595Z,6.33
2022-12-18T05:41:56.775Z,6.30
2022-12-18T05:43:00.055Z,6.28
2022-12-18T05:44:03.177Z,6.28
2022-12-18T05:45:07.044Z,6.27
2022-12-18T05:46:19.651Z,6.27
2022-12-18T05:47:22.900Z,6.26
2022-12-18T05:48:26.035Z,6.24
2022-12-18T05:49:29.207Z,6.22
2022-12-18T05:50:37.740Z,6.18
2022-12-18T05:51:41.580Z,6.13
2022-12-18T05:52:45.725Z,6.12
2022-12-18T05:53:49.481Z,6.09
2022-12-18T05:54:52.746Z,6.09
2022-12-18T05:55:59.520Z,6.06
2022-12-18T05:57:02.737Z,6.04
2022-12-18T05:58:07.734Z,6.00
2022-12-18T05:59:11.005Z,5.98
2022-12-18T06:00:15.100Z,5.96
2022-12-18T06:01:24.038Z,5.94
2022-12-18T06:02:27.462Z,5.93
2022-12-18T06:03:38.271Z,5.92
2022-12-18T06:04:35.746Z,5.91
2022-12-18T06:05:46.280Z,5.91
2022-12-18T06:06:49.433Z,5.93
2022-12-18T06:07:52.581Z,5.93
2022-12-18T06:08:57.365Z,5.91
2022-12-18T06:10:00.630Z,5.88
2022-12-18T06:11:03.840Z,5.86
2022-12-18T06:12:07.666Z,5.85
2022-12-18T06:13:10.855Z,5.86
2022-12-18T06:14:14.079Z,5.86
2022-12-18T06:15:17.284Z,5.87
2022-12-18T06:16:20.526Z,5.86
2022-12-18T06:17:23.622Z,5.87
2022-12-18T06:18:26.853Z,5.86
2022-12-18T06:19:29.932Z,5.85
2022-12-18T06:20:34.045Z,5.82
2022-12-18T06:21:37.360Z,5.80
2022-12-18T06:22:40.531Z,5.79
2022-12-18T06:23:43.997Z,5.78
2022-12-18T06:24:47.096Z,5.78
2022-12-18T06:25:50.671Z,5.78
2022-12-18T06:26:53.937Z,5.78
2022-12-18T06:27:57.119Z,5.78
2022-12-18T06:29:00.368Z,5.80
2022-12-18T06:30:04.475Z,5.80
2022-12-18T06:31:07.927Z,5.79
2022-12-18T06:32:11.076Z,5.81
2022-12-18T06:33:15.131Z,5.82
2022-12-18T06:34:18.327Z,5.83
2022-12-18T06:35:21.482Z,5.84
2022-12-18T06:36:25.383Z,5.83
2022-12-18T06:37:28.799Z,5.85
2022-12-18T06:38:33.293Z,5.85
2022-12-18T06:39:36.469Z,5.87
2022-12-18T06:40:40.031Z,5.87
2022-12-18T06:41:43.349Z,5.86
2022-12-18T06:42:46.720Z,5.87
2022-12-18T06:43:50.046Z,5.85
2022-12-18T06:44:53.393Z,5.85
2022-12-18T06:46:01.346Z,5.83
2022-12-18T06:47:05.172Z,5.79
2022-12-18T06:48:08.331Z,5.77
2022-12-18T06:49:11.510Z,5.76
2022-12-18T06:50:14.634Z,5.74
2022-12-18T06:51:19.432Z,5.74
2022-12-18T06:52:22.740Z,5.71
2022-12-18T06:53:26.305Z,5.71
2022-12-18T06:54:29.462Z,5.69
2022-12-18T06:55:32.780Z,5.68
2022-12-18T06:56:36.079Z,5.66
2022-12-18T06:57:39.353Z,5.63
2022-12-18T06:58:42.619Z,5.61
2022-12-18T06:59:45.836Z,5.59
2022-12-18T07:00:49.102Z,5.57
2022-12-18T07:01:52.511Z,5.56
2022-12-18T07:02:55.798Z,5.56
2022-12-18T07:03:58.957Z,5.54
2022-12-18T07:05:07.495Z,5.54
2022-12-18T07:06:09.186Z,5.54
2022-12-18T07:07:12.181Z,5.55
2022-12-18T07:08:15.207Z,5.55
2022-12-18T07:09:18.235Z,5.53
2022-12-18T07:10:21.612Z,5.52
2022-12-18T07:11:24.815Z,5.53
2022-12-18T07:12:28.322Z,5.54
2022-12-18T07:13:32.132Z,5.54
2022-12-18T07:14:35.340Z,5.54
2022-12-18T07:15:38.392Z,5.52
2022-12-18T07:16:42.191Z,5.49
2022-12-18T07:17:45.303Z,5.47
2022-12-18T07:18:48.633Z,5.45
2022-12-18T07:19:51.720Z,5.44
2022-12-18T07:20:54.852Z,5.42
2022-12-18T07:21:57.914Z,5.40
2022-12-18T07:23:03.489Z,5.39
2022-12-18T07:24:07.038Z,5.37
2022-12-18T07:25:10.131Z,5.38
2022-12-18T07:26:14.274Z,5.35
2022-12-18T07:27:17.413Z,5.34
2022-12-18T07:28:20.611Z,5.32
2022-12-18T07:29:23.741Z,5.32
2022-12-18T07:30:26.903Z,5.30
2022-12-18T07:31:30.160Z,5.29
2022-12-18T07:32:33.308Z,5.29
2022-12-18T07:33:37.140Z,5.30
2022-12-18T07:34:40.453Z,5.31
2022-12-18T07:35:43.510Z,5.32
2022-12-18T07:36:46.556Z,5.34
2022-12-18T07:37:49.732Z,5.35
2022-12-18T07:38:53.417Z,5.38
2022-12-18T07:39:56.630Z,5.40
2022-12-18T07:41:06.795Z,5.40
2022-12-18T07:42:28.440Z,5.40
2022-12-18T07:43:31.911Z,5.39
2022-12-18T07:44:35.077Z,5.37
2022-12-18T07:45:38.306Z,5.36
2022-12-18T07:46:41.613Z,5.35
2022-12-18T07:47:44.703Z,5.33
2022-12-18T07:48:49.592Z,5.32
2022-12-18T07:49:53.015Z,5.30
2022-12-18T07:51:00.258Z,5.28
2022-12-18T07:52:03.490Z,5.25
2022-12-18T07:53:06.626Z,5.22
2022-12-18T07:54:09.747Z,5.21
2022-12-18T07:55:12.859Z,5.20
2022-12-18T07:56:27.231Z,5.20
2022-12-18T07:57:49.064Z,5.20
2022-12-18T07:58:26.229Z,5.19
2022-12-18T07:59:29.487Z,5.18
2022-12-18T08:00:32.672Z,5.15
2022-12-18T08:01:36.213Z,5.13
2022-12-18T08:02:39.728Z,5.10
2022-12-18T08:03:43.339Z,5.08
2022-12-18T08:04:46.871Z,5.09
2022-12-18T08:05:50.063Z,5.08
2022-12-18T08:06:53.401Z,5.09
2022-12-18T08:07:56.920Z,5.07
2022-12-18T08:09:00.105Z,5.06
2022-12-18T08:10:03.806Z,5.07
2022-12-18T08:11:07.342Z,5.05
2022-12-18T08:12:10.529Z,5.06
2022-12-18T08:13:13.586Z,5.04
2022-12-18T08:14:16.826Z,5.03
2022-12-18T08:15:20.037Z,5.01
2022-12-18T08:16:23.515Z,5.01
2022-12-18T08:17:27.468Z,5.01
2022-12-18T08:18:30.780Z,5.01
2022-12-18T08:19:34.013Z,5.00
2022-12-18T08:20:37.355Z,5.02
2022-12-18T08:21:40.546Z,5.03
2022-12-18T08:22:43.669Z,5.05
2022-12-18T08:23:47.172Z,5.07
2022-12-18T08:24:50.823Z,5.08
2022-12-18T08:25:53.874Z,5.06
2022-12-18T08:27:27.946Z,5.06
2022-12-18T08:28:02.689Z,5.06
2022-12-18T08:29:05.866Z,5.05
2022-12-18T08:30:10.212Z,5.03
2022-12-18T08:31:13.324Z,5.03
2022-12-18T08:32:16.477Z,5.02
2022-12-18T08:33:19.593Z,5.02
2022-12-18T08:34:22.665Z,5.01
2022-12-18T08:35:25.762Z,5.00
2022-12-18T08:36:29.000Z,5.03
2022-12-18T08:37:32.129Z,5.04
2022-12-18T08:38:35.325Z,5.05
2022-12-18T08:39:38.537Z,5.05
2022-12-18T08:40:41.631Z,5.03
2022-12-18T08:41:46.604Z,5.04
2022-12-18T08:43:08.093Z,5.02
2022-12-18T08:44:29.708Z,5.00
2022-12-18T08:45:33.889Z,5.00
2022-12-18T08:46:42.507Z,4.96
2022-12-18T08:47:45.599Z,4.94
2022-12-18T08:48:52.327Z,4.91
2022-12-18T08:49:55.618Z,4.88
2022-12-18T08:51:00.330Z,4.85
2022-12-18T08:52:03.612Z,4.84
2022-12-18T08:53:07.099Z,4.82
2022-12-18T08:54:13.486Z,4.79
2022-12-18T08:55:16.595Z,4.76
2022-12-18T08:56:19.816Z,4.72
2022-12-18T08:57:22.848Z,4.69
2022-12-18T08:58:25.956Z,4.67
2022-12-18T08:59:28.890Z,4.64
2022-12-18T09:00:32.147Z,4.62
2022-12-18T09:01:35.394Z,4.55
2022-12-18T09:02:38.847Z,4.55
2022-12-18T09:03:42.621Z,4.51
2022-12-18T09:04:52.386Z,4.49
2022-12-18T09:05:52.833Z,4.47
2022-12-18T09:06:56.074Z,4.46
2022-12-18T09:07:59.323Z,4.45
2022-12-18T09:09:03.584Z,4.47
2022-12-18T09:10:07.358Z,4.48
2022-12-18T09:11:17.168Z,4.47
2022-12-18T09:12:20.243Z,4.49
2022-12-18T09:13:24.533Z,4.52
2022-12-18T09:14:27.734Z,4.53
2022-12-18T09:15:30.919Z,4.53
2022-12-18T09:16:35.516Z,4.55
2022-12-18T09:17:38.703Z,4.55
2022-12-18T09:18:42.516Z,4.56
2022-12-18T09:19:45.873Z,4.57
2022-12-18T09:20:50.786Z,4.57
2022-12-18T09:21:53.956Z,4.58
2022-12-18T09:22:57.176Z,4.59
2022-12-18T09:24:00.622Z,4.60
2022-12-18T09:25:04.178Z,4.59
2022-12-18T09:26:07.943Z,4.58
2022-12-18T09:27:11.156Z,4.57
2022-12-18T09:28:19.446Z,4.56
2022-12-18T09:29:22.714Z,4.57
2022-12-18T09:30:25.952Z,4.56
2022-12-18T09:31:29.134Z,4.57
2022-12-18T09:32:32.128Z,4.57
2022-12-18T09:33:37.000Z,4.59
2022-12-18T09:34:40.309Z,4.59
2022-12-18T09:35:45.378Z,4.60
2022-12-18T09:36:49.031Z,4.61
2022-12-18T09:37:54.030Z,4.61
2022-12-18T09:38:58.171Z,4.61
2022-12-18T09:40:01.418Z,4.58
2022-12-18T09:41:41.642Z,4.58
2022-12-18T09:42:48.433Z,4.55
2022-12-18T09:43:58.289Z,4.56
2022-12-18T09:45:03.444Z,4.56
2022-12-18T09:46:09.790Z,4.60
2022-12-18T09:47:16.695Z,4.61
2022-12-18T09:48:29.634Z,4.63
2022-12-18T09:49:36.527Z,4.64
2022-12-18T09:50:41.143Z,4.65
2022-12-18T09:51:54.128Z,4.65
2022-12-18T09:53:00.708Z,4.63
2022-12-18T09:54:10.226Z,4.60
2022-12-18T09:55:37.454Z,4.58
2022-12-18T09:56:42.983Z,4.56
2022-12-18T09:57:52.583Z,4.55
2022-12-18T09:58:59.278Z,4.54
2022-12-18T10:01:23.225Z,4.65
2022-12-18T10:02:29.461Z,4.54
2022-12-18T10:03:32.825Z,4.52
2022-12-18T10:04:35.972Z,4.53
2022-12-18T10:05:57.284Z,4.54
2022-12-18T10:07:08.990Z,4.53
2022-12-18T10:08:16.076Z,4.53
2022-12-18T10:09:26.670Z,4.53
2022-12-18T10:10:42.761Z,4.52
2022-12-18T10:12:13.811Z,4.52
2022-12-18T10:13:29.431Z,4.53
2022-12-18T10:16:18.711Z,4.67
2022-12-18T10:17:31.452Z,4.56
2022-12-18T10:18:44.364Z,4.58
2022-12-18T10:21:14.250Z,4.74
2022-12-18T10:22:26.700Z,4.60
2022-12-18T10:23:48.433Z,4.59
2022-12-18T10:26:10.538Z,4.67
2022-12-18T10:27:16.775Z,4.54
2022-12-18T10:28:21.038Z,4.52
2022-12-18T10:29:26.216Z,4.51
2022-12-18T10:30:29.423Z,4.52
2022-12-18T10:31:32.739Z,4.53
2022-12-18T10:32:36.288Z,4.54
2022-12-18T10:33:39.372Z,4.55
2022-12-18T10:34:44.234Z,4.55
2022-12-18T10:35:50.418Z,4.54
2022-12-18T10:36:54.275Z,4.55
2022-12-18T10:38:09.651Z,4.56
2022-12-18T10:39:22.984Z,4.57
2022-12-18T10:40:26.282Z,4.53
2022-12-18T10:41:31.126Z,4.52
2022-12-18T10:42:34.416Z,4.51
2022-12-18T10:43:39.849Z,4.50
2022-12-18T10:44:42.893Z,4.49
2022-12-18T10:46:05.911Z,4.49
2022-12-18T10:47:18.621Z,4.47
2022-12-18T10:48:22.862Z,4.47
2022-12-18T10:49:32.222Z,4.47
2022-12-18T10:51:09.635Z,4.46
2022-12-18T10:51:43.044Z,4.45
2022-12-18T10:52:49.717Z,4.42
2022-12-18T10:55:16.003Z,4.48
2022-12-18T10:56:21.481Z,4.35
2022-12-18T10:57:37.316Z,4.34
2022-12-18T10:58:41.167Z,4.33
2022-12-18T10:59:53.342Z,4.31
2022-12-18T11:01:03.738Z,4.29
2022-12-18T11:02:10.496Z,4.28
2022-12-18T11:03:38.474Z,4.28
2022-12-18T11:04:45.579Z,4.26
2022-12-18T11:05:52.776Z,4.18
2022-12-18T11:07:02.006Z,4.11
2022-12-18T11:08:05.127Z,4.05
2022-12-18T11:09:22.963Z,3.99
2022-12-18T11:10:32.393Z,3.96
2022-12-18T11:11:36.173Z,3.91
2022-12-18T11:12:40.196Z,3.90
2022-12-18T11:13:46.722Z,3.88
2022-12-18T11:14:53.138Z,3.88
2022-12-18T11:15:56.658Z,3.89
2022-12-18T11:18:19.063Z,3.89
2022-12-18T11:19:40.616Z,3.88
2022-12-18T11:20:47.948Z,3.85
2022-12-18T11:21:51.706Z,3.85
2022-12-18T11:24:20.378Z,3.84
2022-12-18T11:25:34.550Z,3.84
2022-12-18T11:26:37.617Z,3.85
2022-12-18T11:27:41.074Z,3.86
2022-12-18T11:28:52.630Z,3.87
2022-12-18T11:30:11.213Z,3.87
2022-12-18T11:31:32.111Z,3.86
2022-12-18T11:32:36.661Z,3.85
2022-12-18T11:33:58.499Z,3.83
2022-12-18T11:34:57.412Z,3.79
2022-12-18T11:36:00.423Z,3.77
2022-12-18T11:37:04.914Z,3.78
2022-12-18T11:39:34.480Z,3.92
2022-12-18T11:40:41.533Z,3.82
2022-12-18T11:42:12.220Z,3.82
2022-12-18T11:43:27.947Z,3.82
2022-12-18T11:44:52.743Z,3.83
2022-12-18T11:45:59.276Z,3.82
2022-12-18T11:47:18.027Z,3.80
2022-12-18T11:48:30.397Z,3.77
2022-12-18T11:49:36.977Z,3.73
2022-12-18T11:50:50.054Z,3.68
2022-12-18T11:51:59.611Z,3.68
2022-12-18T11:53:06.121Z,3.67
2022-12-18T11:54:14.177Z,3.65
2022-12-18T11:55:23.420Z,3.61
2022-12-18T11:56:39.423Z,3.61
2022-12-18T11:57:49.117Z,3.58
2022-12-18T12:00:12.681Z,3.59
2022-12-18T12:01:46.272Z,3.46
2022-12-18T12:03:04.437Z,3.42
2022-12-18T12:04:20.266Z,3.42
2022-12-18T12:05:29.959Z,3.42
2022-12-18T12:07:03.595Z,3.41
2022-12-18T12:08:28.084Z,3.38
2022-12-18T12:09:41.035Z,3.34
2022-12-18T12:10:50.815Z,3.29
2022-12-18T12:12:18.640Z,3.26
2022-12-18T12:13:31.271Z,3.20
2022-12-18T12:14:50.140Z,3.20
2022-12-18T12:16:02.951Z,3.12
2022-12-18T12:17:27.511Z,3.12
2022-12-18T12:18:43.461Z,3.10
2022-12-18T12:20:02.235Z,3.10
2022-12-18T12:21:25.112Z,3.10
2022-12-18T12:23:05.109Z,3.09
2022-12-18T12:24:29.088Z,3.08
2022-12-18T12:25:47.667Z,3.09
2022-12-18T12:27:09.388Z,3.10
2022-12-18T12:28:34.380Z,3.10
2022-12-18T12:30:10.365Z,3.10
2022-12-18T12:31:52.232Z,3.10
2022-12-18T12:33:04.915Z,3.09
2022-12-18T12:34:17.420Z,3.07
2022-12-18T12:35:40.615Z,3.04
2022-12-18T12:37:10.338Z,3.05
2022-12-18T12:38:22.689Z,3.07
2022-12-18T12:39:29.378Z,3.08
2022-12-18T12:40:57.035Z,3.08
2022-12-18T12:42:00.928Z,3.09
2022-12-18T12:43:23.935Z,3.09
2022-12-18T12:44:33.317Z,3.11
2022-12-18T12:45:55.672Z,3.12
2022-12-18T12:47:03.878Z,3.10
2022-12-18T12:48:10.671Z,3.07
2022-12-18T12:49:22.400Z,3.07
2022-12-18T12:50:26.790Z,3.07
2022-12-18T12:51:39.512Z,3.08
2022-12-18T12:52:46.932Z,3.09
2022-12-18T12:53:50.677Z,3.11
2022-12-18T12:54:54.678Z,3.12
2022-12-18T12:55:59.006Z,3.13
2022-12-18T12:57:20.850Z,3.13
2022-12-18T12:58:28.806Z,3.15
2022-12-18T12:59:53.540Z,3.18
2022-12-18T13:01:12.940Z,3.17
2022-12-18T13:02:46.336Z,3.15
2022-12-18T13:04:09.778Z,3.15
2022-12-18T13:05:41.209Z,3.12
2022-12-18T13:06:46.397Z,3.12
2022-12-18T13:07:55.881Z,3.08
2022-12-18T13:09:01.757Z,3.04
2022-12-18T13:10:20.387Z,3.02
2022-12-18T13:11:57.868Z,3.01
2022-12-18T13:13:07.284Z,3.02
2022-12-18T13:14:24.412Z,3.05
2022-12-18T13:15:40.113Z,3.04
2022-12-18T13:16:43.508Z,3.06
2022-12-18T13:17:46.990Z,3.06
2022-12-18T13:18:51.995Z,3.06
2022-12-18T13:20:07.840Z,3.08
2022-12-18T13:21:31.855Z,3.08
2022-12-18T13:22:39.252Z,3.06
2022-12-18T13:23:43.035Z,3.04
2022-12-18T13:24:46.604Z,3.04
2022-12-18T13:26:11.211Z,3.02
2022-12-18T13:27:43.750Z,3.02
2022-12-18T13:28:50.730Z,2.98
2022-12-18T13:29:53.825Z,2.98
2022-12-18T13:30:58.518Z,2.97
2022-12-18T13:32:01.901Z,2.97
2022-12-18T13:34:31.448Z,3.03
2022-12-18T13:35:40.591Z,2.92
2022-12-18T13:36:44.236Z,2.93
2022-12-18T13:39:34.136Z,3.10
2022-12-18T13:40:41.795Z,3.00
2022-12-18T13:42:09.701Z,3.00
2022-12-18T13:43:31.356Z,3.00
2022-12-18T13:44:40.708Z,3.01
2022-12-18T13:45:46.159Z,3.01
2022-12-18T13:46:52.322Z,3.00
2022-12-18T13:47:56.104Z,2.99
2022-12-18T13:49:23.789Z,2.99
2022-12-18T13:50:33.961Z,2.98
2022-12-18T13:51:34.421Z,2.99
2022-12-18T13:52:40.156Z,2.97
2022-12-18T13:54:01.855Z,2.97
2022-12-18T13:55:08.350Z,2.97
2022-12-18T13:57:38.429Z,3.04
2022-12-18T13:58:42.365Z,2.93
2022-12-18T13:59:45.804Z,2.92
2022-12-18T14:00:50.135Z,2.90
2022-12-18T14:02:00.838Z,2.95
2022-12-18T14:03:09.328Z,2.95
2022-12-18T14:04:21.533Z,2.97
2022-12-18T14:05:27.409Z,3.00
2022-12-18T14:06:30.699Z,3.01
2022-12-18T14:07:41.931Z,3.01
2022-12-18T14:08:43.834Z,3.01
2022-12-18T14:09:55.623Z,3.00
2022-12-18T14:10:57.650Z,3.00
2022-12-18T14:12:19.007Z,3.02
2022-12-18T14:13:25.637Z,3.01
2022-12-18T14:14:33.629Z,2.98
2022-12-18T14:15:44.207Z,2.97
2022-12-18T14:16:48.611Z,2.95
2022-12-18T14:17:54.859Z,2.97
2022-12-18T14:19:04.552Z,2.98
2022-12-18T14:20:10.532Z,2.98
2022-12-18T14:21:34.449Z,2.96
2022-12-18T14:22:37.619Z,2.96
2022-12-18T14:23:42.565Z,2.96
2022-12-18T14:24:46.816Z,2.94
2022-12-18T14:25:49.897Z,2.93
2022-12-18T14:26:53.038Z,2.92
2022-12-18T14:28:14.691Z,2.90
2022-12-18T14:29:23.773Z,2.87
2022-12-18T14:30:29.883Z,2.81
2022-12-18T14:31:33.046Z,2.78
2022-12-18T14:32:36.197Z,2.75
2022-12-18T14:33:41.448Z,2.73
2022-12-18T14:34:50.912Z,2.70
2022-12-18T14:36:00.811Z,2.69
2022-12-18T14:37:04.427Z,2.68
2022-12-18T14:39:54.922Z,2.80
2022-12-18T14:41:03.942Z,2.66
2022-12-18T14:42:08.882Z,2.64
2022-12-18T14:43:12.565Z,2.62
2022-12-18T14:44:16.344Z,2.61
2022-12-18T14:45:43.112Z,2.60
2022-12-18T14:46:50.216Z,2.61
2022-12-18T14:47:53.741Z,2.61
2022-12-18T14:48:58.238Z,2.59
2022-12-18T14:50:02.787Z,2.57
2022-12-18T14:51:10.306Z,2.54
2022-12-18T14:52:26.129Z,2.51
2022-12-18T14:53:35.759Z,2.53
2022-12-18T14:54:38.931Z,2.52
2022-12-18T14:55:45.698Z,2.54
2022-12-18T14:57:04.328Z,2.54
2022-12-18T14:58:11.306Z,2.58
2022-12-18T14:59:23.723Z,2.60
2022-12-18T15:00:25.425Z,2.62
2022-12-18T15:01:32.337Z,2.63
2022-12-18T15:02:37.752Z,2.63
2022-12-18T15:03:44.469Z,2.63
2022-12-18T15:04:48.695Z,2.61
2022-12-18T15:05:51.710Z,2.60
2022-12-18T15:07:04.685Z,2.59
2022-12-18T15:08:28.120Z,2.58
2022-12-18T15:09:32.544Z,2.56
2022-12-18T15:10:37.576Z,2.54
2022-12-18T15:11:44.389Z,2.52
2022-12-18T15:12:52.833Z,2.50
2022-12-18T15:13:57.631Z,2.47
2022-12-18T15:15:00.733Z,2.46